createdAt,value
2022-08-24T00:04:43.219Z,15.69
2022-08-24T00:09:50.592Z,15.56
2022-08-24T00:14:53.535Z,15.44
2022-08-24T00:19:55.245Z,15.31
2022-08-24T00:24:57.057Z,15.22
2022-08-24T00:29:58.826Z,15.11
2022-08-24T00:35:00.623Z,14.95
2022-08-24T00:40:16.201Z,14.92
2022-08-24T00:45:19.999Z,14.88
2022-08-24T00:50:55.551Z,14.83
2022-08-24T00:56:01.951Z,14.78
2022-08-24T01:01:06.489Z,14.74
2022-08-24T01:06:09.131Z,14.71
2022-08-24T01:11:14.225Z,14.67
2022-08-24T01:16:38.445Z,14.58
2022-08-24T01:21:54.399Z,14.57
2022-08-24T01:26:56.805Z,14.60
2022-08-24T01:31:58.962Z,14.61
2022-08-24T01:37:02.504Z,14.58
2022-08-24T01:42:04.983Z,14.49
2022-08-24T01:47:09.197Z,14.41
2022-08-24T01:52:18.758Z,14.32
2022-08-24T01:57:25.095Z,14.21
2022-08-24T02:02:29.749Z,14.11
2022-08-24T02:07:33.032Z,13.99
2022-08-24T02:12:37.711Z,13.88
2022-08-24T02:17:40.771Z,13.79
2022-08-24T02:22:42.474Z,13.76
2022-08-24T02:27:46.631Z,13.71
2022-08-24T02:32:48.360Z,13.67
2022-08-24T02:37:50.374Z,13.63
2022-08-24T02:42:56.285Z,13.56
2022-08-24T02:47:59.034Z,13.49
2022-08-24T02:53:00.858Z,13.41
2022-08-24T02:58:04.178Z,13.35
2022-08-24T03:03:07.641Z,13.29
2022-08-24T03:08:10.474Z,13.20
2022-08-24T03:13:13.667Z,13.21
2022-08-24T03:18:16.013Z,13.39
2022-08-24T03:23:17.770Z,13.53
2022-08-24T03:28:22.148Z,13.62
2022-08-24T03:33:25.930Z,13.74
2022-08-24T03:38:28.421Z,13.92
2022-08-24T03:43:51.070Z,14.09
2022-08-24T03:48:57.299Z,14.20
2022-08-24T03:53:59.977Z,14.14
2022-08-24T03:59:03.451Z,14.12
2022-08-24T04:04:10.634Z,14.13
2022-08-24T04:09:14.003Z,14.12
2022-08-24T04:14:26.541Z,14.03
2022-08-24T04:19:58.060Z,13.87
2022-08-24T04:25:09.309Z,13.75
2022-08-24T04:30:14.627Z,13.65
2022-08-24T04:35:51.968Z,13.47
2022-08-24T04:40:56.582Z,13.35
2022-08-24T04:46:06.805Z,13.36
2022-08-24T04:51:14.049Z,13.44
2022-08-24T04:56:23.487Z,13.56
2022-08-24T05:01:29.716Z,13.78
2022-08-24T05:06:32.743Z,14.15
2022-08-24T05:11:37.176Z,14.52
2022-08-24T05:16:40.418Z,14.82
2022-08-24T05:21:47.398Z,15.11
2022-08-24T05:26:49.908Z,15.52
2022-08-24T05:31:52.021Z,15.83
2022-08-24T05:36:54.347Z,16.11
2022-08-24T05:42:31.785Z,16.29
2022-08-24T05:47:34.855Z,16.18
2022-08-24T05:52:43.037Z,16.03
2022-08-24T05:57:46.102Z,16.02
2022-08-24T06:02:54.240Z,16.21
2022-08-24T06:07:57.736Z,16.52
2022-08-24T06:13:00.666Z,17.03
2022-08-24T06:18:04.733Z,17.29
2022-08-24T06:23:07.617Z,17.55
2022-08-24T06:28:13.729Z,17.96
2022-08-24T06:33:15.528Z,18.11
2022-08-24T06:38:19.891Z,18.35
2022-08-24T06:43:24.529Z,18.52
2022-08-24T06:48:28.138Z,18.77
2022-08-24T06:53:30.099Z,19.16
2022-08-24T06:58:33.110Z,19.48
2022-08-24T07:03:35.846Z,19.77
2022-08-24T07:08:53.267Z,20.09
2022-08-24T07:13:55.121Z,20.57
2022-08-24T07:18:58.942Z,20.96
2022-08-24T07:24:03.353Z,21.28
2022-08-24T07:29:36.775Z,21.52
2022-08-24T07:34:38.854Z,21.84
2022-08-24T07:39:42.689Z,22.14
2022-08-24T07:44:46.058Z,22.47
2022-08-24T07:49:48.249Z,22.71
2022-08-24T07:54:50.239Z,23.01
2022-08-24T07:59:52.032Z,23.29
2022-08-24T08:04:56.957Z,23.50
2022-08-24T08:10:01.957Z,23.83
2022-08-24T08:15:06.317Z,24.06
2022-08-24T08:20:10.252Z,24.37
2022-08-24T08:25:13.091Z,24.61
2022-08-24T08:30:15.811Z,24.91
2022-08-24T08:35:19.060Z,25.17
2022-08-24T08:40:48.263Z,25.42
2022-08-24T08:46:04.742Z,25.67
2022-08-24T08:51:31.394Z,25.83
2022-08-24T08:56:46.955Z,26.01
2022-08-24T09:02:15.272Z,26.37
2022-08-24T09:08:15.362Z,26.81
2022-08-24T09:13:45.795Z,27.20
2022-08-24T09:19:31.796Z,27.59
2022-08-24T09:31:21.982Z,28.00
2022-08-24T09:36:40.194Z,28.05
2022-08-24T09:42:15.243Z,28.24
2022-08-24T09:47:22.782Z,28.46
2022-08-24T09:53:09.016Z,28.58
2022-08-24T09:58:20.232Z,28.67
2022-08-24T10:03:38.541Z,28.49
2022-08-24T10:08:53.507Z,28.65
2022-08-24T10:14:03.936Z,28.77
2022-08-24T10:19:43.026Z,28.91
2022-08-24T10:25:02.656Z,29.10
2022-08-24T10:30:42.212Z,29.24
2022-08-24T10:36:08.060Z,29.39
2022-08-24T10:42:00.940Z,29.45
2022-08-24T10:47:22.360Z,29.59
2022-08-24T10:52:53.331Z,29.62
2022-08-24T10:58:19.551Z,29.65
2022-08-24T11:03:27.761Z,29.71
2022-08-24T11:08:33.485Z,29.68
2022-08-24T11:13:37.353Z,29.82
2022-08-24T11:18:54.291Z,29.96
2022-08-24T11:24:02.291Z,30.03
2022-08-24T11:29:04.707Z,29.83
2022-08-24T11:34:15.160Z,29.87
2022-08-24T11:39:37.651Z,29.94
2022-08-24T11:45:08.058Z,29.92
2022-08-24T11:50:26.932Z,30.17
2022-08-24T11:55:47.092Z,30.07
2022-08-24T12:00:59.541Z,30.16
2022-08-24T12:06:08.465Z,30.25
2022-08-24T12:11:34.869Z,30.16
2022-08-24T12:16:45.660Z,30.23
2022-08-24T12:21:53.189Z,30.35
2022-08-24T12:27:11.717Z,30.27
2022-08-24T12:32:19.568Z,30.22
2022-08-24T12:43:32.855Z,30.16
2022-08-24T12:48:58.846Z,30.08
2022-08-24T12:54:19.068Z,30.14
2022-08-24T12:59:26.444Z,30.11
2022-08-24T13:04:27.938Z,30.13
2022-08-24T13:09:37.003Z,30.24
2022-08-24T13:14:44.845Z,30.27
2022-08-24T13:20:06.836Z,30.34
2022-08-24T13:25:42.740Z,30.46
2022-08-24T13:30:53.615Z,30.44
2022-08-24T13:36:17.604Z,30.33
2022-08-24T13:41:44.073Z,30.24
2022-08-24T13:47:01.600Z,30.44
2022-08-24T13:52:31.019Z,30.54
2022-08-24T13:57:44.583Z,30.64
2022-08-24T14:03:22.080Z,30.53
2022-08-24T14:08:36.250Z,30.54
2022-08-24T14:13:56.223Z,30.48
2022-08-24T14:19:19.848Z,30.63
2022-08-24T14:24:27.032Z,30.71
2022-08-24T14:29:32.718Z,30.72
2022-08-24T14:34:55.516Z,30.72
2022-08-24T14:40:17.141Z,30.71
2022-08-24T14:45:37.236Z,30.70
2022-08-24T14:50:48.183Z,30.66
2022-08-24T14:56:07.727Z,30.72
2022-08-24T15:01:15.251Z,30.71
2022-08-24T15:06:27.984Z,30.70
2022-08-24T15:11:30.212Z,30.62
2022-08-24T15:16:53.774Z,30.75
2022-08-24T15:22:05.406Z,30.67
2022-08-24T15:27:18.661Z,30.75
2022-08-24T15:32:21.706Z,30.67
2022-08-24T15:37:33.515Z,30.66
2022-08-24T15:42:37.121Z,30.69
2022-08-24T15:47:46.478Z,30.61
2022-08-24T15:53:00.990Z,30.63
2022-08-24T15:58:23.661Z,30.53
2022-08-24T16:03:50.231Z,30.42
2022-08-24T16:09:16.315Z,30.33
2022-08-24T16:14:28.524Z,30.36
2022-08-24T16:19:34.151Z,30.27
2022-08-24T16:24:38.939Z,30.20
2022-08-24T16:29:45.130Z,30.11
2022-08-24T16:34:52.951Z,30.02
2022-08-24T16:39:54.628Z,29.98
2022-08-24T16:44:58.203Z,29.96
2022-08-24T16:49:59.765Z,29.89
2022-08-24T16:55:01.570Z,29.75
2022-08-24T17:00:17.013Z,29.69
2022-08-24T17:05:19.066Z,29.62
2022-08-24T17:10:23.155Z,29.55
2022-08-24T17:15:24.789Z,29.51
2022-08-24T17:20:26.356Z,29.42
2022-08-24T17:25:30.105Z,29.32
2022-08-24T17:30:32.104Z,29.19
2022-08-24T17:35:34.016Z,29.01
2022-08-24T17:40:35.674Z,28.86
2022-08-24T17:45:37.291Z,28.71
2022-08-24T17:50:39.352Z,28.66
2022-08-24T17:55:40.943Z,28.53
2022-08-24T18:00:43.252Z,28.31
2022-08-24T18:05:44.850Z,28.08
2022-08-24T18:10:46.399Z,27.78
2022-08-24T18:15:49.594Z,27.39
2022-08-24T18:20:51.178Z,27.10
2022-08-24T18:25:53.822Z,26.90
2022-08-24T18:30:55.995Z,26.69
2022-08-24T18:36:00.773Z,26.40
2022-08-24T18:41:02.517Z,26.05
2022-08-24T18:46:06.254Z,25.75
2022-08-24T18:51:07.950Z,25.73
2022-08-24T18:56:12.563Z,25.55
2022-08-24T19:01:14.711Z,25.29
2022-08-24T19:06:16.628Z,24.98
2022-08-24T19:17:19.923Z,24.12
2022-08-24T19:22:21.577Z,23.74
2022-08-24T19:27:24.759Z,23.45
2022-08-24T19:32:29.590Z,23.14
2022-08-24T19:37:31.185Z,22.84
2022-08-24T19:42:32.843Z,22.59
2022-08-24T19:47:34.872Z,22.35
2022-08-24T19:52:37.742Z,22.20
2022-08-24T19:57:48.628Z,22.03
2022-08-24T20:02:53.656Z,21.89
2022-08-24T20:07:56.213Z,21.72
2022-08-24T20:12:57.805Z,21.62
2022-08-24T20:18:00.245Z,21.65
2022-08-24T20:23:05.968Z,21.88
2022-08-24T20:33:30.373Z,22.04
2022-08-24T20:38:33.814Z,22.11
2022-08-24T20:43:35.343Z,22.25
2022-08-24T20:48:41.888Z,22.41
2022-08-24T20:53:45.384Z,22.47
2022-08-24T20:58:46.956Z,22.46
2022-08-24T21:03:48.569Z,22.54
2022-08-24T21:08:52.437Z,22.49
2022-08-24T21:13:53.993Z,22.40
2022-08-24T21:18:55.521Z,22.25
2022-08-24T21:23:57.078Z,22.02
2022-08-24T21:28:58.705Z,21.75
2022-08-24T21:34:19.113Z,21.42
2022-08-24T21:39:21.586Z,21.05
2022-08-24T21:44:23.212Z,20.88
2022-08-24T21:49:25.555Z,20.60
2022-08-24T21:54:27.148Z,20.45
2022-08-24T21:59:28.723Z,20.28
2022-08-24T22:04:31.129Z,20.31
2022-08-24T22:09:32.989Z,20.46
2022-08-24T22:14:34.623Z,20.60
2022-08-24T22:19:36.170Z,20.73
2022-08-24T22:24:37.717Z,20.74
2022-08-24T22:29:39.273Z,20.36
2022-08-24T22:34:40.833Z,20.03
2022-08-24T22:39:42.393Z,19.76
2022-08-24T22:44:44.099Z,19.54
2022-08-24T22:49:45.721Z,19.39
2022-08-24T22:54:47.270Z,19.34
2022-08-24T22:59:49.027Z,19.32
2022-08-24T23:04:52.454Z,19.30
2022-08-24T23:09:54.063Z,19.27
2022-08-24T23:14:58.843Z,19.17
2022-08-24T23:20:00.715Z,19.05
2022-08-24T23:25:02.903Z,18.93
2022-08-24T23:30:06.738Z,18.74
2022-08-24T23:35:08.969Z,18.57
2022-08-24T23:40:11.174Z,18.43
2022-08-24T23:45:12.857Z,18.31
2022-08-24T23:50:16.976Z,18.32
2022-08-24T23:55:21.337Z,18.31
